Terminal Aerodrome Forecast
Issued by NWS Memphis, TN

Home | Current Version | Previous Version | Text Only | Print | Product List | Glossary On
Versions: 1 2 3 4 5 6 7 8 9 10 11 12 13 14 15 16
493
FTUS44 KMEG 280533
TAFMKL
TAF
KMKL 280533Z 2806/2906 00000KT 4SM BR SKC
      TEMPO 2806/2810 1SM BR
     FM281300 08005KT P6SM FEW050 BKN200
     FM290200 08003KT P6SM SKC=

USA.gov is the U.S. government's official web portal to all federal, state and local government web resources and services.